Time;durP1;ratioP1;P1;durP2;ratioP2;P2;SDS_P1;SDS_P2;PMS_P1;PMS_P2;Temp;Humidity;BMP_temperature;BMP_pressure;BME280_temperature;BME280_humidity;BME280_pressure;Samples;Min_cycle;Max_cycle;Signal;HPM_P1;HPM_P2
2023/09/09 00:01:59;;;;;;;11.7;9.5;;;;;;;;;;;;;
2023/09/09 00:04:24;;;;;;;12.1;9.7;;;;;;;;;;;;;
2023/09/09 00:06:51;;;;;;;10.7;9.6;;;;;;;;;;;;;
2023/09/09 00:09:16;;;;;;;11.1;9.4;;;;;;;;;;;;;
2023/09/09 00:11:41;;;;;;;12.1;9.4;;;;;;;;;;;;;
2023/09/09 00:14:06;;;;;;;10.7;9.4;;;;;;;;;;;;;
2023/09/09 00:16:31;;;;;;;10.4;9.3;;;;;;;;;;;;;
2023/09/09 00:18:56;;;;;;;11;9.6;;;;;;;;;;;;;
2023/09/09 00:21:21;;;;;;;10.4;9.4;;;;;;;;;;;;;
2023/09/09 00:23:47;;;;;;;10.5;9.4;;;;;;;;;;;;;
2023/09/09 00:26:12;;;;;;;10.6;9.5;;;;;;;;;;;;;
2023/09/09 00:28:37;;;;;;;11;9.6;;;;;;;;;;;;;
2023/09/09 00:31:03;;;;;;;11;9.9;;;;;;;;;;;;;
2023/09/09 00:33:29;;;;;;;11.1;9.9;;;;;;;;;;;;;
2023/09/09 00:35:54;;;;;;;10.6;9.5;;;;;;;;;;;;;
2023/09/09 00:38:20;;;;;;;12.6;9.9;;;;;;;;;;;;;
2023/09/09 00:40:46;;;;;;;11.7;10;;;;;;;;;;;;;
2023/09/09 00:43:11;;;;;;;11.5;10.3;;;;;;;;;;;;;
2023/09/09 00:45:36;;;;;;;10.7;9.6;;;;;;;;;;;;;
2023/09/09 00:48:01;;;;;;;11.7;10.2;;;;;;;;;;;;;
2023/09/09 00:50:27;;;;;;;10.9;9.8;;;;;;;;;;;;;
2023/09/09 00:52:52;;;;;;;11.2;9.8;;;;;;;;;;;;;
2023/09/09 00:55:17;;;;;;;11.4;9.6;;;;;;;;;;;;;
2023/09/09 00:57:42;;;;;;;10.5;9.3;;;;;;;;;;;;;
2023/09/09 01:00:10;;;;;;;10.2;9.1;;;;;;;;;;;;;
2023/09/09 01:02:33;;;;;;;11.9;9.1;;;;;;;;;;;;;
2023/09/09 01:05:00;;;;;;;11.1;9.7;;;;;;;;;;;;;
2023/09/09 01:07:24;;;;;;;10.3;9.2;;;;;;;;;;;;;
2023/09/09 01:09:49;;;;;;;11.5;9.5;;;;;;;;;;;;;
2023/09/09 01:12:14;;;;;;;10.5;9.4;;;;;;;;;;;;;
2023/09/09 01:14:39;;;;;;;10.6;9;;;;;;;;;;;;;
2023/09/09 01:17:04;;;;;;;11.3;9.9;;;;;;;;;;;;;
2023/09/09 01:19:31;;;;;;;12.3;9.8;;;;;;;;;;;;;
2023/09/09 01:21:55;;;;;;;10.4;9.2;;;;;;;;;;;;;
2023/09/09 01:24:21;;;;;;;11;9.9;;;;;;;;;;;;;
2023/09/09 01:26:46;;;;;;;11.5;10.2;;;;;;;;;;;;;
2023/09/09 01:29:11;;;;;;;10.5;9.5;;;;;;;;;;;;;
2023/09/09 01:31:38;;;;;;;10.9;9.3;;;;;;;;;;;;;
2023/09/09 01:34:03;;;;;;;10.6;9.2;;;;;;;;;;;;;
2023/09/09 01:36:29;;;;;;;10.5;9.4;;;;;;;;;;;;;
2023/09/09 01:38:54;;;;;;;10.8;9.7;;;;;;;;;;;;;
2023/09/09 01:41:19;;;;;;;10.9;9.8;;;;;;;;;;;;;
2023/09/09 01:43:44;;;;;;;11.1;9.5;;;;;;;;;;;;;
2023/09/09 01:46:10;;;;;;;11.5;10.3;;;;;;;;;;;;;
2023/09/09 01:48:35;;;;;;;11.4;9.5;;;;;;;;;;;;;
2023/09/09 01:51:00;;;;;;;11;9.3;;;;;;;;;;;;;
2023/09/09 01:53:26;;;;;;;11.4;9.7;;;;;;;;;;;;;
2023/09/09 01:55:51;;;;;;;11.3;9.5;;;;;;;;;;;;;
2023/09/09 01:58:18;;;;;;;11.9;9.4;;;;;;;;;;;;;
2023/09/09 02:00:43;;;;;;;10.4;9.1;;;;;;;;;;;;;
2023/09/09 02:03:09;;;;;;;11.8;9.5;;;;;;;;;;;;;
2023/09/09 02:05:34;;;;;;;12.3;9.9;;;;;;;;;;;;;
2023/09/09 02:08:00;;;;;;;13;9.7;;;;;;;;;;;;;
2023/09/09 02:10:25;;;;;;;11.1;9.4;;;;;;;;;;;;;
2023/09/09 02:12:50;;;;;;;10.5;9.3;;;;;;;;;;;;;
2023/09/09 02:15:16;;;;;;;9.9;8.9;;;;;;;;;;;;;
2023/09/09 02:17:42;;;;;;;13.8;9.6;;;;;;;;;;;;;
2023/09/09 02:20:08;;;;;;;12.7;10.1;;;;;;;;;;;;;
2023/09/09 02:22:35;;;;;;;10.5;9.3;;;;;;;;;;;;;
2023/09/09 02:25:00;;;;;;;13.6;9.9;;;;;;;;;;;;;
2023/09/09 02:27:26;;;;;;;12.5;10.4;;;;;;;;;;;;;
2023/09/09 02:29:51;;;;;;;12.1;10.1;;;;;;;;;;;;;
2023/09/09 02:32:17;;;;;;;12.1;9.9;;;;;;;;;;;;;
2023/09/09 02:34:42;;;;;;;13.7;9.9;;;;;;;;;;;;;
2023/09/09 02:37:08;;;;;;;12.4;10.2;;;;;;;;;;;;;
2023/09/09 02:39:33;;;;;;;11.6;10.3;;;;;;;;;;;;;
2023/09/09 02:42:00;;;;;;;11.6;9.6;;;;;;;;;;;;;
2023/09/09 02:44:25;;;;;;;11.6;10.4;;;;;;;;;;;;;
2023/09/09 02:46:50;;;;;;;11.2;10;;;;;;;;;;;;;
2023/09/09 02:49:15;;;;;;;11.3;10.1;;;;;;;;;;;;;
2023/09/09 02:51:42;;;;;;;11.3;9.5;;;;;;;;;;;;;
2023/09/09 02:54:07;;;;;;;12.8;10.3;;;;;;;;;;;;;
2023/09/09 02:56:33;;;;;;;12;10.7;;;;;;;;;;;;;
2023/09/09 02:58:58;;;;;;;10.8;9.7;;;;;;;;;;;;;
2023/09/09 03:01:25;;;;;;;11.1;9.6;;;;;;;;;;;;;
2023/09/09 03:03:50;;;;;;;11;9.4;;;;;;;;;;;;;
2023/09/09 03:06:16;;;;;;;11;9.8;;;;;;;;;;;;;
2023/09/09 03:08:41;;;;;;;11.7;9.8;;;;;;;;;;;;;
2023/09/09 03:11:07;;;;;;;12.2;9.6;;;;;;;;;;;;;
2023/09/09 03:13:32;;;;;;;11.5;9.8;;;;;;;;;;;;;
2023/09/09 03:16:00;;;;;;;11.3;9.6;;;;;;;;;;;;;
2023/09/09 03:18:25;;;;;;;10.4;9.3;;;;;;;;;;;;;
2023/09/09 03:20:53;;;;;;;10.1;9.1;;;;;;;;;;;;;
2023/09/09 03:23:18;;;;;;;10.3;9.3;;;;;;;;;;;;;
2023/09/09 03:25:44;;;;;;;11.1;9.8;;;;;;;;;;;;;
2023/09/09 03:28:09;;;;;;;11.3;9.7;;;;;;;;;;;;;
2023/09/09 03:30:34;;;;;;;10.2;9.2;;;;;;;;;;;;;
2023/09/09 03:32:59;;;;;;;10.1;9.1;;;;;;;;;;;;;
2023/09/09 03:35:25;;;;;;;10.9;9.1;;;;;;;;;;;;;
2023/09/09 03:37:50;;;;;;;9.7;8.8;;;;;;;;;;;;;
2023/09/09 03:40:16;;;;;;;12.1;10.2;;;;;;;;;;;;;
2023/09/09 03:42:41;;;;;;;10.6;9.3;;;;;;;;;;;;;
2023/09/09 03:45:12;;;;;;;10.7;9.4;;;;;;;;;;;;;
2023/09/09 03:47:36;;;;;;;11.9;10.1;;;;;;;;;;;;;
2023/09/09 03:50:01;;;;;;;10.9;9.4;;;;;;;;;;;;;
2023/09/09 03:52:26;;;;;;;10.8;9.7;;;;;;;;;;;;;
2023/09/09 03:54:53;;;;;;;11.1;9.8;;;;;;;;;;;;;
2023/09/09 03:57:17;;;;;;;10;9;;;;;;;;;;;;;
2023/09/09 03:59:42;;;;;;;10.7;9.6;;;;;;;;;;;;;
2023/09/09 04:02:31;;;;;;;11.6;9.8;;;;;;;18.55;100;939.5902;;;;
2023/09/09 04:04:56;;;;;;;12.1;9.8;;;;;;;18.52;100;939.6014;;;;
2023/09/09 04:07:23;;;;;;;11;9.8;;;;;;;18.52;100;939.5901;;;;
2023/09/09 04:09:48;;;;;;;10.5;9.1;;;;;;;18.58;99.72754;939.6116;;;;
2023/09/09 04:12:13;;;;;;;10.9;9.8;;;;;;;18.59;98.9502;939.596;;;;
2023/09/09 04:14:46;;;;;;;10.9;9.1;;;;;;;18.51;99.74609;939.6266;;;;
2023/09/09 04:17:09;;;;;;;11.6;9.9;;;;;;;18.34;100;939.6319;;;;
2023/09/09 04:19:36;;;;;;;11.6;8.8;;;;;;;18.22;100;939.6453;;;;
2023/09/09 04:22:01;;;;;;;11.5;9.8;;;;;;;18.19;100;939.6294;;;;
2023/09/09 04:24:29;;;;;;;13.4;10.1;;;;;;;18.28;100;939.5571;;;;
2023/09/09 04:26:54;;;;;;;12.7;10.8;;;;;;;18.29;100;939.5795;;;;
2023/09/09 04:29:22;;;;;;;12.3;10.6;;;;;;;18.33;100;939.5772;;;;
2023/09/09 04:31:47;;;;;;;11.4;9.9;;;;;;;18.23;100;939.5806;;;;
2023/09/09 04:34:13;;;;;;;11.7;9.7;;;;;;;18.32;99.91211;939.5564;;;;
2023/09/09 04:36:38;;;;;;;10.7;9.1;;;;;;;18.38;99.28711;939.5988;;;;
2023/09/09 04:39:04;;;;;;;10.7;9.6;;;;;;;18.45;98.53613;939.6447;;;;
2023/09/09 04:41:29;;;;;;;11.2;10.1;;;;;;;18.51;97.55957;939.6113;;;;
2023/09/09 04:43:55;;;;;;;12.1;9.7;;;;;;;18.59;95.80957;939.6403;;;;
2023/09/09 04:46:20;;;;;;;12.3;10.4;;;;;;;18.28;98.86719;939.6266;;;;
2023/09/09 04:48:48;;;;;;;11;9.9;;;;;;;18.36;98.75977;939.6717;;;;
2023/09/09 04:51:13;;;;;;;11.1;9.9;;;;;;;18.46;98.14063;939.6624;;;;
2023/09/09 04:53:43;;;;;;;13;9.9;;;;;;;18.55;96.88379;939.6944;;;;
2023/09/09 04:56:07;;;;;;;12.4;9.8;;;;;;;18.59;96.03125;939.6774;;;;
2023/09/09 04:58:34;;;;;;;11.4;9.4;;;;;;;18.47;98.2373;939.6049;;;;
2023/09/09 05:00:59;;;;;;;11.1;9.7;;;;;;;18.32;99.2168;939.6411;;;;
2023/09/09 05:03:24;;;;;;;11.3;9.4;;;;;;;18.34;99.0791;939.6456;;;;
2023/09/09 05:05:50;;;;;;;11.8;9.6;;;;;;;18.48;97.7168;939.6409;;;;
2023/09/09 05:08:15;;;;;;;10.5;9.4;;;;;;;18.55;96.95313;939.654;;;;
2023/09/09 05:10:45;;;;;;;11.7;8.9;;;;;;;18.53;96.46094;939.6964;;;;
2023/09/09 05:13:13;;;;;;;10.2;9;;;;;;;18.61;95.47656;939.7198;;;;
2023/09/09 05:15:38;;;;;;;10.2;9.1;;;;;;;18.55;95.97656;939.7234;;;;
2023/09/09 05:18:13;;;;;;;9.9;8.8;;;;;;;18.61;95.8252;939.7199;;;;
2023/09/09 05:20:38;;;;;;;12.2;9.8;;;;;;;18.64;94.66797;939.7191;;;;
2023/09/09 05:23:07;;;;;;;10.8;9.5;;;;;;;18.63;95.40137;939.7192;;;;
2023/09/09 05:25:32;;;;;;;10.1;9.1;;;;;;;18.5;95.91797;939.7147;;;;
2023/09/09 05:28:00;;;;;;;13.3;9.2;;;;;;;18.5;96.10449;939.7623;;;;
2023/09/09 05:30:25;;;;;;;10.1;9;;;;;;;18.6;95.77734;939.8298;;;;
2023/09/09 05:32:53;;;;;;;10.3;9.2;;;;;;;18.7;94.48633;939.8309;;;;
2023/09/09 05:35:18;;;;;;;10.5;8.9;;;;;;;18.67;94.64063;939.8362;;;;
2023/09/09 05:37:43;;;;;;;9.8;8.8;;;;;;;18.53;95.75195;939.8689;;;;
2023/09/09 05:40:08;;;;;;;9.8;8.6;;;;;;;18.43;97.06543;939.8828;;;;
2023/09/09 05:42:33;;;;;;;10.2;9.2;;;;;;;18.72;97.07031;939.8918;;;;
2023/09/09 05:44:59;;;;;;;10.3;9.2;;;;;;;19;96.64355;939.9228;;;;
2023/09/09 05:47:25;;;;;;;11.1;8.7;;;;;;;19.22;95.44629;939.8806;;;;
2023/09/09 05:49:51;;;;;;;10.3;9.2;;;;;;;19.35;92.93457;939.9934;;;;
2023/09/09 05:52:16;;;;;;;9.8;8.6;;;;;;;19.87;92.20508;939.962;;;;
2023/09/09 05:54:44;;;;;;;8.8;7.9;;;;;;;20.77;89.31934;939.9738;;;;
2023/09/09 05:57:09;;;;;;;8.4;7.5;;;;;;;21.59;85.15039;939.9494;;;;
2023/09/09 05:59:34;;;;;;;8.4;7.5;;;;;;;22.32;80.36621;939.9567;;;;
2023/09/09 06:02:01;;;;;;;8.3;7.3;;;;;;;23.11;77.39551;939.9593;;;;
2023/09/09 06:04:27;;;;;;;8.1;7.1;;;;;;;23.79;74.40625;939.9959;;;;
2023/09/09 06:06:54;;;;;;;11.2;7.6;;;;;;;23.93;72.51172;939.9906;;;;
2023/09/09 06:09:19;;;;;;;7.9;6.8;;;;;;;24.38;71.32422;940.0009;;;;
2023/09/09 06:11:44;;;;;;;8.3;7.1;;;;;;;24.91;68.68164;939.9536;;;;
2023/09/09 06:14:11;;;;;;;7.7;6.9;;;;;;;25.11;67.44922;940.0212;;;;
2023/09/09 06:16:36;;;;;;;7.2;6.5;;;;;;;25.24;67.45898;940.0294;;;;
2023/09/09 06:19:04;;;;;;;7.8;6.9;;;;;;;25.39;66.54785;940.0538;;;;
2023/09/09 06:21:29;;;;;;;7.3;6.6;;;;;;;25.86;65.9082;940.0896;;;;
2023/09/09 06:23:57;;;;;;;7.7;7;;;;;;;25.55;66.08887;940.1028;;;;
2023/09/09 06:26:22;;;;;;;7.7;6.9;;;;;;;25.59;66.1875;940.0545;;;;
2023/09/09 06:28:49;;;;;;;8;6.9;;;;;;;25.64;66.01855;940.0854;;;;
2023/09/09 06:31:14;;;;;;;7.8;7;;;;;;;26.03;65.02441;940.1118;;;;
2023/09/09 06:33:39;;;;;;;8.1;6.8;;;;;;;26.21;65.7832;940.0698;;;;
2023/09/09 06:36:07;;;;;;;7.9;7.1;;;;;;;26.46;64.50488;940.1442;;;;
2023/09/09 06:38:32;;;;;;;8.1;7.3;;;;;;;26.13;63.07422;940.1702;;;;
2023/09/09 06:40:59;;;;;;;8.2;7.4;;;;;;;26.16;64.11816;940.1426;;;;
2023/09/09 06:43:25;;;;;;;7.2;6.5;;;;;;;26.11;65.62598;940.1588;;;;
2023/09/09 06:45:52;;;;;;;7.3;6.4;;;;;;;25.95;65.46094;940.1228;;;;
2023/09/09 06:48:18;;;;;;;8.7;6.5;;;;;;;25.69;65.67188;940.1403;;;;
2023/09/09 06:50:44;;;;;;;7.9;7.1;;;;;;;25.62;65.90918;940.0956;;;;
2023/09/09 06:53:09;;;;;;;7.8;6.9;;;;;;;24.98;67.93848;940.1589;;;;
2023/09/09 06:55:38;;;;;;;7.9;7.1;;;;;;;24.71;68.77051;940.0814;;;;
2023/09/09 06:58:03;;;;;;;8;7.2;;;;;;;24.77;68.67383;940.1024;;;;
2023/09/09 07:00:30;;;;;;;8.2;6.9;;;;;;;24.78;68.49707;940.1038;;;;
2023/09/09 07:02:55;;;;;;;7.6;6.9;;;;;;;24.34;69.84375;940.15;;;;
2023/09/09 07:05:22;;;;;;;10.3;7.4;;;;;;;24.46;70.28711;940.1537;;;;
2023/09/09 07:07:48;;;;;;;7.9;7;;;;;;;25;68.73242;940.1381;;;;
2023/09/09 07:10:14;;;;;;;7.9;7.2;;;;;;;25.16;68.29688;940.088;;;;
2023/09/09 07:12:42;;;;;;;7.5;6.8;;;;;;;26.14;65.13477;940.0903;;;;
2023/09/09 07:15:07;;;;;;;8;7.2;;;;;;;25.98;64.34277;940.1139;;;;
2023/09/09 07:17:35;;;;;;;8.2;7.3;;;;;;;27;61.52441;940.1108;;;;
2023/09/09 07:20:00;;;;;;;9;6.6;;;;;;;27.22;60.06152;940.1077;;;;
2023/09/09 07:22:28;;;;;;;7.5;6.8;;;;;;;27.94;59.09961;940.1116;;;;
2023/09/09 07:24:54;;;;;;;7.6;6.9;;;;;;;29.03;56.16113;940.1094;;;;
2023/09/09 07:27:19;;;;;;;8.6;6.7;;;;;;;30;53.64453;940.1423;;;;
2023/09/09 07:29:47;;;;;;;7.5;6.6;;;;;;;29.86;52.2793;940.154;;;;
2023/09/09 07:32:12;;;;;;;8.8;7;;;;;;;30.1;51.24414;940.0869;;;;
2023/09/09 07:34:39;;;;;;;7.6;6.8;;;;;;;30.04;51.50098;940.0776;;;;
2023/09/09 07:37:04;;;;;;;6.9;6.3;;;;;;;29.56;52.11328;940.0823;;;;
2023/09/09 07:39:29;;;;;;;9.4;6.3;;;;;;;29.62;51.75;940.0386;;;;
2023/09/09 07:41:54;;;;;;;7;6.4;;;;;;;29.18;54.29688;940.0375;;;;
2023/09/09 07:44:22;;;;;;;6.6;6;;;;;;;30.29;51.86426;940.009;;;;
2023/09/09 07:46:47;;;;;;;7.7;6.6;;;;;;;31.42;49.70703;939.9828;;;;
2023/09/09 07:49:13;;;;;;;6.8;6.2;;;;;;;31.85;48.59277;940.0348;;;;
2023/09/09 07:51:38;;;;;;;8.3;6.1;;;;;;;30.11;51.05566;939.9791;;;;
2023/09/09 07:54:04;;;;;;;7.3;6.6;;;;;;;29.68;52.86719;939.975;;;;
2023/09/09 07:56:29;;;;;;;7.1;6.4;;;;;;;29.74;52.55176;939.9919;;;;
2023/09/09 07:58:56;;;;;;;7.1;6.4;;;;;;;29.08;54.4873;939.9481;;;;
2023/09/09 08:01:21;;;;;;;7.5;6.8;;;;;;;28.97;55.55762;940.0142;;;;
2023/09/09 08:03:47;;;;;;;7.4;6.4;;;;;;;28.88;56.16504;940.0147;;;;
2023/09/09 08:06:12;;;;;;;7.4;6.7;;;;;;;28.85;55.07813;940.0559;;;;
2023/09/09 08:09:49;;;;;;;8.2;6.7;;;;;;;28.76;58.21973;940.0066;;;;
2023/09/09 08:12:14;;;;;;;7.4;6.6;;;;;;;28.89;57.01172;940.0519;;;;
2023/09/09 08:14:43;;;;;;;7.4;6.6;;;;;;;28.82;57.63281;940.0669;;;;
2023/09/09 08:17:08;;;;;;;7.9;7.1;;;;;;;28.76;57.22168;940.0433;;;;
2023/09/09 08:19:34;;;;;;;7.2;6.5;;;;;;;28.85;56.41113;940.0769;;;;
2023/09/09 08:21:59;;;;;;;7.4;6.6;;;;;;;28.44;57.37109;940.0373;;;;
2023/09/09 08:24:25;;;;;;;8;7.2;;;;;;;28.75;56.87402;940.0726;;;;
2023/09/09 08:26:50;;;;;;;7;6.4;;;;;;;28.79;55.57129;940.0801;;;;
2023/09/09 08:29:18;;;;;;;7.3;6.6;;;;;;;28.99;56.25;940.0281;;;;
2023/09/09 08:31:43;;;;;;;7.8;7;;;;;;;28.61;59.4043;940.0566;;;;
2023/09/09 08:34:08;;;;;;;6.9;6.3;;;;;;;28.61;58.77246;939.965;;;;
2023/09/09 08:36:33;;;;;;;7.8;6.7;;;;;;;28.53;58.51172;940.0383;;;;
2023/09/09 08:38:59;;;;;;;7.2;6.5;;;;;;;28.61;60.20117;940.0057;;;;
2023/09/09 08:41:24;;;;;;;7.8;7;;;;;;;28.41;57.11719;940.0367;;;;
2023/09/09 08:43:52;;;;;;;7.8;6.6;;;;;;;28.93;55.30176;940.0347;;;;
2023/09/09 08:46:16;;;;;;;9.6;7.2;;;;;;;29.05;55.71094;939.9427;;;;
2023/09/09 08:48:41;;;;;;;7.9;7.1;;;;;;;29.4;55.75293;939.9539;;;;
2023/09/09 08:51:08;;;;;;;7.3;6.6;;;;;;;29.61;56.74414;939.9762;;;;
2023/09/09 08:53:33;;;;;;;10.3;7.1;;;;;;;29.63;56.31738;939.9832;;;;
2023/09/09 08:55:58;;;;;;;7.4;6.7;;;;;;;29.52;54.50488;939.9789;;;;
2023/09/09 08:58:26;;;;;;;8.5;7;;;;;;;29.67;54.4873;939.9674;;;;
2023/09/09 09:00:52;;;;;;;8.4;7.5;;;;;;;30.06;54.42773;939.9584;;;;
2023/09/09 09:03:20;;;;;;;7.5;6.7;;;;;;;30.21;53.33496;939.945;;;;
2023/09/09 09:05:45;;;;;;;7.4;6.7;;;;;;;30.21;53.47656;939.9394;;;;
2023/09/09 09:08:13;;;;;;;7.5;6.7;;;;;;;29.32;56.64941;939.9609;;;;
2023/09/09 09:10:40;;;;;;;7.5;6.8;;;;;;;29.63;55.1748;939.9526;;;;
2023/09/09 09:13:04;;;;;;;7.4;6.7;;;;;;;29.67;57.29004;939.8992;;;;
2023/09/09 09:15:31;;;;;;;7;6.3;;;;;;;29.04;59.55566;939.9128;;;;
2023/09/09 09:17:55;;;;;;;7.3;6.6;;;;;;;28.57;60.20605;939.8779;;;;
2023/09/09 09:20:24;;;;;;;7.8;7;;;;;;;28.48;60.34863;939.8947;;;;
2023/09/09 09:22:49;;;;;;;8.6;6.9;;;;;;;28.3;61.27637;939.8642;;;;
2023/09/09 09:25:16;;;;;;;8;7.2;;;;;;;28.45;59.39453;939.8912;;;;
2023/09/09 09:27:42;;;;;;;8.1;7.1;;;;;;;27.76;63.9082;939.8699;;;;
2023/09/09 09:30:08;;;;;;;8.1;7.3;;;;;;;27.88;66.84766;939.855;;;;
2023/09/09 09:32:35;;;;;;;8.3;6.8;;;;;;;28.32;61.55176;939.8173;;;;
2023/09/09 09:35:00;;;;;;;7.7;6.5;;;;;;;28.57;59.52734;939.8405;;;;
2023/09/09 09:37:26;;;;;;;9.4;7.3;;;;;;;28.25;62.45605;939.8681;;;;
2023/09/09 09:39:52;;;;;;;8;7.1;;;;;;;28.17;63.16016;939.7883;;;;
2023/09/09 09:42:18;;;;;;;8.3;7.4;;;;;;;28.56;62.38086;939.7483;;;;
2023/09/09 09:44:43;;;;;;;8.1;7.3;;;;;;;28.66;61.84863;939.7623;;;;
2023/09/09 09:47:08;;;;;;;8.4;7.3;;;;;;;28.47;66.91211;939.7196;;;;
2023/09/09 09:49:33;;;;;;;9.7;7.5;;;;;;;28.59;62.50488;939.6925;;;;
2023/09/09 09:51:58;;;;;;;7.7;6.9;;;;;;;28.42;64.20508;939.6863;;;;
2023/09/09 09:54:23;;;;;;;7.9;7.1;;;;;;;28.12;66.09961;939.6415;;;;
2023/09/09 09:56:49;;;;;;;7.6;6.8;;;;;;;28.01;67.19922;939.7234;;;;
2023/09/09 09:59:14;;;;;;;7.6;6.7;;;;;;;28;65.83301;939.6831;;;;
2023/09/09 10:01:43;;;;;;;7.4;6.7;;;;;;;27.78;68.96973;939.6158;;;;
2023/09/09 10:04:08;;;;;;;8.8;7.1;;;;;;;27.82;69.28516;939.6633;;;;
2023/09/09 10:06:33;;;;;;;7.9;7.2;;;;;;;28.08;68.88574;939.6887;;;;
2023/09/09 10:08:59;;;;;;;7.6;6.8;;;;;;;27.8;65.2207;939.6674;;;;
2023/09/09 10:11:27;;;;;;;9.7;7.4;;;;;;;27.96;67.42871;939.6799;;;;
2023/09/09 10:13:52;;;;;;;7.6;6.9;;;;;;;28.18;65.19336;939.6266;;;;
2023/09/09 10:16:17;;;;;;;8.2;7.4;;;;;;;28.48;67.50781;939.6092;;;;
2023/09/09 10:18:44;;;;;;;7.8;7;;;;;;;28.96;62.04297;939.5773;;;;
2023/09/09 10:21:10;;;;;;;7.5;6.7;;;;;;;29.48;60.56738;939.6384;;;;
2023/09/09 10:23:40;;;;;;;7.9;6.6;;;;;;;29.72;61.45605;939.5639;;;;
2023/09/09 10:26:07;;;;;;;7.5;6.8;;;;;;;29.9;60.47949;939.5303;;;;
2023/09/09 10:28:32;;;;;;;7.5;6.7;;;;;;;30.27;57.99805;939.5009;;;;
2023/09/09 10:31:00;;;;;;;7.1;6.4;;;;;;;30.08;59.45215;939.5181;;;;
2023/09/09 10:33:25;;;;;;;7.5;6.7;;;;;;;30.38;58.11914;939.4722;;;;
2023/09/09 10:35:51;;;;;;;7.5;6.8;;;;;;;30.15;61.94434;939.4439;;;;
2023/09/09 10:38:16;;;;;;;7.2;6.5;;;;;;;30.6;58.41113;939.43;;;;
2023/09/09 10:40:43;;;;;;;7.3;6.6;;;;;;;30.35;57.75781;939.3894;;;;
2023/09/09 10:43:08;;;;;;;7.7;6.8;;;;;;;30.62;56.78906;939.3845;;;;
2023/09/09 10:45:34;;;;;;;6.9;6.2;;;;;;;30.48;58.69336;939.4077;;;;
2023/09/09 10:47:58;;;;;;;7.6;6.9;;;;;;;30.22;60.13965;939.3867;;;;
2023/09/09 10:50:26;;;;;;;8.8;7;;;;;;;30.04;62.50293;939.3795;;;;
2023/09/09 10:52:51;;;;;;;7.8;6.7;;;;;;;29.89;60.50195;939.3486;;;;
2023/09/09 10:55:16;;;;;;;8.3;6.6;;;;;;;30.33;60.29785;939.2935;;;;
2023/09/09 10:57:41;;;;;;;7.4;6.5;;;;;;;30.42;60.25098;939.2427;;;;
2023/09/09 11:00:09;;;;;;;8;6.3;;;;;;;30.99;56.55957;939.2219;;;;
2023/09/09 11:02:33;;;;;;;8.3;6.8;;;;;;;31.29;57.30371;939.2391;;;;
2023/09/09 11:04:58;;;;;;;7.3;6.6;;;;;;;31.86;55.29102;939.1938;;;;
2023/09/09 11:07:26;;;;;;;7.6;6.8;;;;;;;32.15;53.45605;939.2153;;;;
2023/09/09 11:09:51;;;;;;;7.2;6.5;;;;;;;32.58;51.84961;939.2537;;;;
2023/09/09 11:12:15;;;;;;;7;6.4;;;;;;;32.34;52.5791;939.2168;;;;
2023/09/09 11:14:41;;;;;;;8.8;7;;;;;;;31.56;56.0791;939.2171;;;;
2023/09/09 11:17:06;;;;;;;7.3;6.6;;;;;;;32.23;53.12988;939.1707;;;;
2023/09/09 11:19:31;;;;;;;8;6.7;;;;;;;33.16;50.59375;939.209;;;;
2023/09/09 11:21:56;;;;;;;7.3;6.6;;;;;;;32.75;51.19824;939.2256;;;;
2023/09/09 11:24:21;;;;;;;7.4;6.7;;;;;;;32.48;51.7793;939.2308;;;;
2023/09/09 11:26:48;;;;;;;7.6;6.6;;;;;;;31.97;54.60938;939.2253;;;;
2023/09/09 11:29:13;;;;;;;7;6.3;;;;;;;32.57;52.31641;939.2402;;;;
2023/09/09 11:31:39;;;;;;;7.2;6.1;;;;;;;31.42;55.39258;939.2338;;;;
2023/09/09 11:34:05;;;;;;;7.6;6.8;;;;;;;31.51;54.49414;939.2402;;;;
2023/09/09 11:36:29;;;;;;;8.3;6.8;;;;;;;31.2;55.48438;939.2989;;;;
2023/09/09 11:38:54;;;;;;;7;6.3;;;;;;;30.72;58.0918;939.1895;;;;
2023/09/09 11:41:22;;;;;;;7.3;6.6;;;;;;;30.61;58.49512;939.1567;;;;
2023/09/09 11:43:47;;;;;;;6.8;6.2;;;;;;;31.05;55.26367;939.1788;;;;
2023/09/09 11:46:12;;;;;;;7.1;6.4;;;;;;;31.27;55.48145;939.23;;;;
2023/09/09 11:48:37;;;;;;;7.7;6.9;;;;;;;30.71;58.25781;939.1722;;;;
2023/09/09 11:51:05;;;;;;;7.4;6.7;;;;;;;30.52;60.77734;939.1658;;;;
2023/09/09 11:53:30;;;;;;;7.7;6.6;;;;;;;30.45;58.6543;939.1828;;;;
2023/09/09 11:55:56;;;;;;;7.4;6.6;;;;;;;30.32;59.7832;939.0936;;;;
2023/09/09 11:58:21;;;;;;;7.6;6.9;;;;;;;29.37;63.9707;939.0999;;;;
2023/09/09 12:00:47;;;;;;;8.4;7.1;;;;;;;29.94;61.51074;939.1121;;;;
2023/09/09 12:03:12;;;;;;;7.5;6.8;;;;;;;30.41;59.50879;939.1353;;;;
2023/09/09 12:05:41;;;;;;;7.6;6.9;;;;;;;30.39;59.06543;939.0909;;;;
2023/09/09 12:08:07;;;;;;;8.9;7;;;;;;;30.31;58.64648;939.1108;;;;
2023/09/09 12:10:34;;;;;;;8;6.6;;;;;;;30.09;60.54102;939.1055;;;;
2023/09/09 12:12:59;;;;;;;8.6;7.2;;;;;;;30.21;59.69727;939.1333;;;;
2023/09/09 12:15:28;;;;;;;10.2;7;;;;;;;30.08;59.88379;939.088;;;;
2023/09/09 12:17:53;;;;;;;8.4;7.1;;;;;;;29.68;62.61914;939.0396;;;;
2023/09/09 12:20:18;;;;;;;8.2;7.4;;;;;;;29.45;62.5752;939.0413;;;;
2023/09/09 12:22:47;;;;;;;8.7;7.2;;;;;;;28.98;64.14063;939.0637;;;;
2023/09/09 12:25:08;;;;;;;8.7;7.8;;;;;;;29;65.08496;939.0336;;;;
2023/09/09 12:27:36;;;;;;;8.1;7.3;;;;;;;29.27;62.96777;939.0222;;;;
2023/09/09 12:30:03;;;;;;;8.9;8;;;;;;;28.95;65.68457;939.0259;;;;
2023/09/09 12:32:27;;;;;;;8.4;7.3;;;;;;;29.28;61.86133;938.9437;;;;
2023/09/09 12:34:52;;;;;;;8.5;7.6;;;;;;;29.11;62.77832;938.991;;;;
2023/09/09 12:37:17;;;;;;;8.2;7.4;;;;;;;29.05;64.36719;939.0023;;;;
2023/09/09 12:39:43;;;;;;;7.9;7.1;;;;;;;29.07;63.26172;938.9344;;;;
2023/09/09 12:42:08;;;;;;;7.5;6.8;;;;;;;29.05;63.23535;938.9659;;;;
2023/09/09 12:44:34;;;;;;;7.9;7.1;;;;;;;29.33;62.13086;938.9856;;;;
2023/09/09 12:46:58;;;;;;;8.6;7.2;;;;;;;29.41;64.11914;938.9897;;;;
2023/09/09 12:49:23;;;;;;;9.6;7.7;;;;;;;29.83;61.54492;938.9804;;;;
2023/09/09 12:51:49;;;;;;;8;7.3;;;;;;;29.67;62.61914;939.0355;;;;
2023/09/09 12:54:14;;;;;;;9.5;7.4;;;;;;;29.44;62.65723;938.9769;;;;
2023/09/09 12:56:41;;;;;;;8.6;7.2;;;;;;;29.44;61.02539;938.9963;;;;
2023/09/09 12:59:06;;;;;;;8.8;7.9;;;;;;;29.31;64.21387;938.9803;;;;
2023/09/09 13:01:32;;;;;;;8;7.1;;;;;;;29.4;63.27344;938.9985;;;;
2023/09/09 13:03:57;;;;;;;7.9;7.2;;;;;;;29.5;63.03711;939.1021;;;;
2023/09/09 13:06:23;;;;;;;8.3;7.2;;;;;;;29.42;64.36035;939.0261;;;;
2023/09/09 13:08:48;;;;;;;8.7;7.8;;;;;;;29.54;61.81445;939.0403;;;;
2023/09/09 13:11:15;;;;;;;8.9;7.1;;;;;;;29.7;60.77539;939.0126;;;;
2023/09/09 13:13:40;;;;;;;8.1;7.3;;;;;;;29.4;63.90332;938.9742;;;;
2023/09/09 13:16:08;;;;;;;7.7;6.9;;;;;;;29;66.7998;939.0494;;;;
2023/09/09 13:18:32;;;;;;;7.9;7.2;;;;;;;29.22;64.53418;939.0776;;;;
2023/09/09 13:20:57;;;;;;;8.7;7.4;;;;;;;28.99;63.72656;939.0654;;;;
2023/09/09 13:23:22;;;;;;;7.9;7.1;;;;;;;29.03;62.10059;939.0842;;;;
2023/09/09 13:25:48;;;;;;;7.8;7.1;;;;;;;29.16;63.1543;939.0922;;;;
2023/09/09 13:28:13;;;;;;;8.7;7.9;;;;;;;29.28;61.45605;939.0022;;;;
2023/09/09 13:30:39;;;;;;;8;7.2;;;;;;;28.98;63.64063;939.0506;;;;
2023/09/09 13:33:04;;;;;;;7.6;6.9;;;;;;;29.01;61.47754;939.0225;;;;
2023/09/09 13:35:31;;;;;;;8;7.2;;;;;;;29.38;60.79102;939.0297;;;;
2023/09/09 13:37:56;;;;;;;8;7.2;;;;;;;29.48;61.00781;939.0458;;;;
2023/09/09 13:40:23;;;;;;;7.7;6.9;;;;;;;29.45;61.3252;939.0363;;;;
2023/09/09 13:42:48;;;;;;;8.1;7.3;;;;;;;29.5;62.27344;939.015;;;;
2023/09/09 13:45:16;;;;;;;7.7;7;;;;;;;29.3;62.41309;939.0236;;;;
2023/09/09 13:47:41;;;;;;;7.9;7.2;;;;;;;29.22;64.40332;939.0126;;;;
2023/09/09 13:50:12;;;;;;;7.9;7.1;;;;;;;28.78;65.79004;939.0193;;;;
2023/09/09 13:52:38;;;;;;;7.6;6.9;;;;;;;29.07;62.48828;939.0256;;;;
2023/09/09 13:55:04;;;;;;;8.8;6.9;;;;;;;29.07;61.38086;938.9501;;;;
2023/09/09 13:57:30;;;;;;;7.5;6.8;;;;;;;29.29;60.66992;938.9878;;;;
2023/09/09 13:59:56;;;;;;;7.1;6.4;;;;;;;29.33;61.12988;939.0151;;;;
2023/09/09 14:02:22;;;;;;;7.8;6.9;;;;;;;29.28;60.24121;938.9891;;;;
2023/09/09 14:04:47;;;;;;;7.4;6.6;;;;;;;29.38;60.3623;938.943;;;;
2023/09/09 14:09:53;;;;;;;9.2;6.9;;;;;;;29.23;61.48535;938.9007;;;;
2023/09/09 14:12:18;;;;;;;7.2;6.6;;;;;;;29.41;59.87695;938.8679;;;;
2023/09/09 14:14:45;;;;;;;7.2;6.6;;;;;;;29.24;61.37988;938.884;;;;
2023/09/09 14:17:10;;;;;;;8.2;7.1;;;;;;;29.25;60.97559;938.8886;;;;
2023/09/09 14:19:38;;;;;;;7.4;6.6;;;;;;;29.27;60.59766;938.8969;;;;
2023/09/09 14:22:03;;;;;;;7.4;6.7;;;;;;;29.42;59.56836;938.8318;;;;
2023/09/09 14:24:28;;;;;;;7.3;6.4;;;;;;;29.53;58.24902;938.8972;;;;
2023/09/09 14:26:56;;;;;;;7.3;6.6;;;;;;;29.58;59.68555;938.9133;;;;
2023/09/09 14:29:21;;;;;;;6.6;5.9;;;;;;;29.45;62.20703;938.845;;;;
2023/09/09 14:31:48;;;;;;;8.7;7;;;;;;;29.48;59.91211;938.8922;;;;
2023/09/09 14:34:13;;;;;;;7.2;6.5;;;;;;;29.45;60.20508;938.8049;;;;
2023/09/09 14:36:39;;;;;;;7.7;6.9;;;;;;;29.3;60.75586;938.8148;;;;
2023/09/09 14:39:04;;;;;;;7.4;6.7;;;;;;;29.32;61.23633;938.8254;;;;
2023/09/09 14:41:32;;;;;;;7.7;7;;;;;;;29.31;60.63965;938.8096;;;;
2023/09/09 14:43:57;;;;;;;8.3;6.4;;;;;;;29.44;59.73926;938.8191;;;;
2023/09/09 14:46:25;;;;;;;8;6.9;;;;;;;29.48;59.81641;938.8561;;;;
2023/09/09 14:48:48;;;;;;;7.8;6.7;;;;;;;29.6;61.46484;938.9002;;;;
2023/09/09 14:51:13;;;;;;;6.8;6.1;;;;;;;29.68;58.9248;938.8586;;;;
2023/09/09 14:53:38;;;;;;;6.8;6.2;;;;;;;29.8;59.33203;938.8297;;;;
2023/09/09 14:56:03;;;;;;;7.5;6.8;;;;;;;29.69;59.19922;938.8711;;;;
2023/09/09 14:58:28;;;;;;;7.7;6.7;;;;;;;29.68;57.27832;938.8415;;;;
2023/09/09 15:00:53;;;;;;;6.9;6.3;;;;;;;29.7;58.27148;938.8566;;;;
2023/09/09 15:03:19;;;;;;;7.4;6.6;;;;;;;29.62;58.91504;938.8533;;;;
2023/09/09 15:05:46;;;;;;;7.1;6.4;;;;;;;29.59;59.99707;938.9009;;;;
2023/09/09 15:08:11;;;;;;;7.7;6.3;;;;;;;29.63;59.23926;938.8937;;;;
2023/09/09 15:10:36;;;;;;;7.2;6.5;;;;;;;29.53;59.16699;938.9106;;;;
2023/09/09 15:13:01;;;;;;;7.4;6.7;;;;;;;29.31;60.74707;938.9048;;;;
2023/09/09 15:15:27;;;;;;;7.1;6.3;;;;;;;29.37;59.99219;938.8911;;;;
2023/09/09 15:17:53;;;;;;;7.3;6.5;;;;;;;29.42;59.04492;938.9217;;;;
2023/09/09 15:20:21;;;;;;;6.9;6.3;;;;;;;29.34;59.2959;938.9016;;;;
2023/09/09 15:22:46;;;;;;;7;6.3;;;;;;;29.28;59.6582;938.8674;;;;
2023/09/09 15:25:17;;;;;;;9.5;6.3;;;;;;;29.35;59.7998;938.8613;;;;
2023/09/09 15:27:42;;;;;;;7.7;6.9;;;;;;;29.33;60.6416;938.9236;;;;
2023/09/09 15:30:07;;;;;;;7;6.3;;;;;;;29.13;61.12598;938.8781;;;;
2023/09/09 15:32:36;;;;;;;7.2;6.5;;;;;;;29.08;62.14355;938.8973;;;;